CheckWX is a tool to help pilots better visualize weather data.  It is not intended as a substitute for an official pre-flight weather briefing.

19:54:53 UTC

KEWN METAR
Coastal Carolina Regional Airport
New Bern, North Carolina, USA
Current

1 hour ago

KEWN 251854Z 28009KT 10SM CLR 33/19 A2992 RMK AO2 SLP131 T03330194
Observed
Jun-25 @ 18:54 UTC
Wind
  • 280° at 9 KTS
Visibility
10 SM
Flight Rules
VFR
Cloud Levels
  • Clear skies
Temperature
33°C / 91°F
Dewpoint
19°C / 66°F
Heat Index
34°C / 94°F
Humidity
44%
Altimeter
29.92" Hg
Pressure
1013.22 hPa
Previous

2 hours ago

KEWN 251754Z 29010KT 10SM CLR 33/19 A2993 RMK AO2 SLP134 T03280194 10328 20267 50000
Observed
Jun-25 @ 17:54 UTC
Wind
  • 290° at 10 KTS
Visibility
10 SM
Flight Rules
VFR
Cloud Levels
  • Clear skies
Temperature
33°C / 91°F
Dewpoint
19°C / 66°F
Heat Index
34°C / 94°F
Humidity
44%
Altimeter
29.93" Hg
Pressure
1013.52 hPa
Previous

3 hours ago

KEWN 251654Z 30005KT 10SM CLR 32/21 A2993 RMK AO2 SLP134 T03170206
Observed
Jun-25 @ 16:54 UTC
Wind
  • 300° at 5 KTS
Visibility
10 SM
Flight Rules
VFR
Cloud Levels
  • Clear skies
Temperature
32°C / 90°F
Dewpoint
21°C / 70°F
Heat Index
36°C / 96°F
Humidity
52%
Altimeter
29.93" Hg
Pressure
1013.52 hPa